Etusivu
METAR-TAF:

METAR-TAF

Lentoasemat :

Rooma-Fiumicino, Italia

Leonardo da Vincin kansainvälinen lentoasema

Leveyspiiri: 41-48N, Pituuspiiri: 012-14E, korkeus merenpinnasta: 2 m

Tämänhetkinen sää

Tämä raportti tehtiin 22 minuuttia sitten, kello 15.20 UTC
Tuuli 11 kn lounaasta
Lämpötila 28°C
Kosteus 62%
Ilmanpaine 1013 hPa
Näkyvyys 10 km tai enemmän
Muutamia pilviä 2500 ft:n korkeudessa

METAR: LIRF 251520Z 22011KT 9999 FEW025 28/20 Q1013 NOSIG

Aika: 17:42 (15:42 UTC)


TAF: puuttuu

Säähavainnot ja -ennusteet yli 4000 lentoasemalta (METAR- ja TAF-raportit).

Käytössä olevat sääasemat on merkitty karttaan keltaisilla ja punaisilla pisteillä.

Aseta hiiri pisteen päälle nähdäksesi sääaseman nimen.

Klikkaa sitten nähdäksesi säähavainnot ja -ennusteet.

Kartan vaihtaminen: klikkaa mustalla rastilla varustettuja vihreitä pisteitä, niin voit zoomata sisään; viivalla varustettua vihreää pistettä, niin voit zoomata ulos tai vihreitä nuolia, niin pääset viereisille kartoille.


METAR-TAF: